This is the latest recevied weather packets stored in our database for station/object KK7AZD-13. If no packets are shown the sender has not sent any weather packets the latest 1 day(s).
| Time | Temp. | Humidity | Pressure | Rain* | Wind** | Luminosity | Snow |
|---|---|---|---|---|---|---|---|
| 1777986793 | 3.33° C | 80% | 1012.8 hPa | 0 mm | 0 m/s | 10 W/m² | - |
| 1777985891 | 3.33° C | 80% | 1012.9 hPa | 0 mm | 0 m/s | 2 W/m² | - |
| 1777984988 | 4.44° C | 76% | 1012.8 hPa | 0 mm | 0 m/s | 0 W/m² | - |
| 1777984088 | 4.44° C | 76% | 1012.6 hPa | 0 mm | 0 m/s | 0 W/m² | - |
| 1777983185 | 4.44° C | 76% | 1012.3 hPa | 0 mm | 0 m/s | 0 W/m² | - |
| 1777982282 | 4.44° C | 78% | 1012.3 hPa | 0 mm | 0 m/s | 0 W/m² | - |
| 1777981379 | 3.33° C | 82% | 1012.2 hPa | 0 mm | 0 m/s | 0 W/m² | - |
| 1777980480 | 5.56° C | 76% | 1012.3 hPa | 0 mm | 0.89 m/s, 51° | 0 W/m² | - |
| 1777979579 | 5.56° C | 73% | 1012.2 hPa | 0 mm | 0.45 m/s, 38° | 0 W/m² | - |
| 1777978676 | 7.22° C | 68% | 1012.1 hPa | 0 mm | 1.34 m/s, 342° | 0 W/m² | - |
| 1777977772 | 6.11° C | 71% | 1012 hPa | 0 mm | 0.45 m/s, 16° | 0 W/m² | - |
| 1777976868 | 6.67° C | 70% | 1012.1 hPa | 0 mm | 0.45 m/s, 44° | 0 W/m² | - |
| 1777975966 | 7.22° C | 68% | 1012 hPa | 0 mm | 0 m/s | 0 W/m² | - |
| 1777975067 | 7.22° C | 68% | 1012 hPa | 0 mm | 0.45 m/s, 336° | 0 W/m² | - |
| 1777974163 | 9.44° C | 61% | 1012.1 hPa | 0 mm | 0.89 m/s, 20° | 0 W/m² | - |
| 1777973259 | 10° C | 58% | 1011.9 hPa | 0 mm | 3.13 m/s, 9° | 0 W/m² | - |
| 1777972359 | 10.56° C | 58% | 1012.1 hPa | 0 mm | 2.68 m/s, 11° | 0 W/m² | - |
| 1777971457 | 10° C | 59% | 1012.2 hPa | 0 mm | 2.68 m/s, 5° | 0 W/m² | - |
| 1777970557 | 10.56° C | 58% | 1012.1 hPa | 0 mm | 2.68 m/s, 7° | 0 W/m² | - |
| 1777969652 | 11.11° C | 55% | 1011.9 hPa | 0 mm | 2.68 m/s, 15° | 0 W/m² | - |
| 1777968749 | 10.56° C | 56% | 1012 hPa | 0 mm | 3.13 m/s, 16° | 0 W/m² | - |
* Rain latest hour (hover to see other rain measurements)
** Current wind speed in m/s (hover to see current wind gust speed)